19:50
Airports
History
Links
Donate
Help keep this website running!
PayPal
Bitcoin
Information on this page is community maintained and may be outdated or inaccurate and is intended for reference only or PC simulator navigating!
Always use approved charts for navigating.
USRR
SURGUT
SURGUT (USRR)
Surgut, Khanty-Mansi Autonomous Okrug, Russian Federation (628422)
(C)
Lat/Lng:61° 20' 37.29" N / 73° 24' 6.63" E
61.343693 / 73.401842
Elevation:200'ft 61mMSL
ID / ICAO:USRR
Runways:1
Longest:(07-25) 2,768.1m 9,082ft Asphalt
Controlled:Yes
Distance To
Airport ID:
Airport Radio Frequencies
ATIS: 124.8
Ground: 121.8
Tower: 120.8
Approach: 120.3
Nearby VORs <50NM
Nearby NDBs
METARUpdated 03-24-17 19:30 GMT
Altimeter: 29.77
Visibility: 4.3 statute miles
Wind: 1.9 knots (VRB°)
Temp: -1°c 30°f
Humidity: 58.9%

METAR: USRR 241930Z VRB01MPS 7000 NSC M01/M08 Q1008 R07/CLRD60 NOSIG RMK QFE751

(Powered by phpweather)
Runway 07 / 25
Dimensions:2768.1 x 45.1m 9082' x 148'ft
Surface:Asphalt
Edge Lights:High intensity
Runway 07 [A]Runway 25 [B]
Heading:089°TH 269°TH
Lat:
Lng:
61° 20' 37.09"N
73° 22' 32.9"E
61° 20' 37.5"N
73° 25' 40.36"E
ALS:MALSMALS
Google Map
Nearby Airports
(C) KOGALYM 69.2 NM
USRK NNE 32°
(C) NIZHNEVARTOVSK 106.3 NM
USNN ESE 104°
(C) KHANTY MANSIYSK 145.3 NM
USHH (WX) W 261°
(C) Plekhanovo 402.9 NM
USTL SW 223°
(C) Roschino 404.7 NM
USTR SW 224°
(C) SALEKHARD 416.4 NM
USDD NNW 330°
(C) Fedorovka 432.4 NM
UNOF S 181°
VFR Chart
Flight Planning at SkyVector.com